Time;durP1;ratioP1;P1;durP2;ratioP2;P2;SDS_P1;SDS_P2;PMS_P1;PMS_P2;Temp;Humidity;BMP_temperature;BMP_pressure;BME280_temperature;BME280_humidity;BME280_pressure;Samples;Min_cycle;Max_cycle;Signal;HPM_P1;HPM_P2
2023/12/31 00:00:05;;;;;;;2.87;1.63;;;1.40;99.90;;;;;;4999895;28;20978;-80
2023/12/31 00:02:34;;;;;;;1.97;1.40;;;1.50;99.90;;;;;;4999457;28;20455;-79
2023/12/31 00:05:01;;;;;;;2.10;1.90;;;1.40;99.90;;;;;;5010252;28;20454;-76
2023/12/31 00:07:28;;;;;;;2.23;2.00;;;1.40;99.90;;;;;;5001655;28;20475;-76
2023/12/31 00:09:54;;;;;;;1.60;1.50;;;1.40;99.90;;;;;;4999303;28;20486;-76
2023/12/31 00:12:22;;;;;;;3.53;1.83;;;1.30;99.90;;;;;;5005064;28;20466;-77
2023/12/31 00:14:49;;;;;;;2.00;1.53;;;1.10;99.90;;;;;;5012497;28;20968;-79
2023/12/31 00:17:16;;;;;;;3.20;2.30;;;1.00;99.90;;;;;;4992573;28;21182;-76
2023/12/31 00:19:44;;;;;;;2.83;2.63;;;0.90;99.90;;;;;;5009455;28;21045;-75
2023/12/31 00:22:11;;;;;;;3.67;2.77;;;0.80;99.90;;;;;;5005352;28;20799;-76
2023/12/31 00:24:39;;;;;;;3.73;3.03;;;0.80;99.90;;;;;;5011099;28;20466;-76
2023/12/31 00:27:06;;;;;;;4.53;3.90;;;0.70;99.90;;;;;;5005373;28;20508;-76
2023/12/31 00:29:33;;;;;;;4.07;3.67;;;0.70;99.90;;;;;;5005886;28;20493;-75
2023/12/31 00:32:00;;;;;;;3.73;3.10;;;0.60;99.90;;;;;;5008839;28;21040;-76
2023/12/31 00:34:27;;;;;;;4.50;3.80;;;0.60;99.90;;;;;;5005971;28;20498;-73
2023/12/31 00:36:55;;;;;;;6.17;3.63;;;0.60;99.90;;;;;;5018744;28;20549;-78
2023/12/31 00:39:22;;;;;;;4.20;3.80;;;0.60;99.90;;;;;;5002810;28;20488;-77
2023/12/31 00:41:49;;;;;;;6.30;3.93;;;0.70;99.90;;;;;;5005632;28;20443;-78
2023/12/31 00:44:16;;;;;;;4.83;3.57;;;0.70;99.90;;;;;;4994912;28;20899;-78
2023/12/31 00:46:43;;;;;;;4.60;3.30;;;0.70;99.90;;;;;;5002618;28;20462;-76
2023/12/31 00:49:10;;;;;;;4.20;2.77;;;0.70;99.90;;;;;;5006458;28;20535;-77
2023/12/31 00:51:37;;;;;;;3.50;3.20;;;0.70;99.90;;;;;;4997510;28;20478;-76
2023/12/31 00:54:06;;;;;;;4.70;2.87;;;0.70;99.90;;;;;;5004084;28;20559;-79
2023/12/31 00:56:33;;;;;;;3.50;1.90;;;0.60;99.90;;;;;;5002774;28;20435;-76
2023/12/31 00:59:01;;;;;;;2.27;2.07;;;0.60;99.90;;;;;;5002601;28;20839;-76
2023/12/31 01:01:28;;;;;;;2.57;2.33;;;0.60;99.90;;;;;;5004404;28;20554;-77
2023/12/31 01:03:55;;;;;;;3.53;2.47;;;0.60;99.90;;;;;;5026120;28;20438;-76
2023/12/31 01:06:23;;;;;;;4.43;2.70;;;0.70;99.90;;;;;;5015962;28;20447;-76
2023/12/31 01:08:51;;;;;;;3.50;1.93;;;0.60;99.90;;;;;;5000427;28;20459;-75
2023/12/31 01:11:20;;;;;;;2.83;2.40;;;0.60;99.90;;;;;;5014839;28;20963;-77
2023/12/31 01:13:47;;;;;;;3.60;2.27;;;0.60;99.90;;;;;;5004597;28;20452;-75
2023/12/31 01:16:14;;;;;;;2.70;1.97;;;0.60;99.90;;;;;;5002448;28;21018;-76
2023/12/31 01:18:41;;;;;;;2.60;1.83;;;0.60;99.90;;;;;;5003365;28;20443;-76
2023/12/31 01:21:08;;;;;;;2.37;1.93;;;0.60;99.90;;;;;;5008174;28;20497;-75
2023/12/31 01:23:35;;;;;;;2.10;1.60;;;0.60;99.90;;;;;;5011577;28;20500;-76
2023/12/31 01:26:02;;;;;;;1.43;1.33;;;0.60;99.90;;;;;;5005411;28;20467;-76
2023/12/31 01:28:31;;;;;;;1.37;1.00;;;0.50;99.90;;;;;;5010033;28;20507;-76
2023/12/31 01:30:58;;;;;;;1.43;1.10;;;0.50;99.90;;;;;;5003738;28;20502;-75
2023/12/31 01:33:24;;;;;;;2.37;1.17;;;0.60;99.90;;;;;;5004400;28;20448;-76
2023/12/31 01:35:51;;;;;;;1.43;0.83;;;0.50;99.90;;;;;;5000764;28;20515;-75
2023/12/31 01:38:18;;;;;;;1.83;1.57;;;0.40;99.90;;;;;;5005196;28;20459;-74
2023/12/31 01:40:53;;;;;;;2.73;1.70;;;0.40;99.90;;;;;;5001436;28;20486;-74
2023/12/31 01:43:20;;;;;;;1.60;1.50;;;0.40;99.90;;;;;;5000860;28;20469;-75
2023/12/31 01:45:48;;;;;;;1.90;1.27;;;0.30;99.90;;;;;;4999160;28;20531;-75
2023/12/31 01:48:16;;;;;;;2.40;2.20;;;0.30;99.90;;;;;;5009881;28;20507;-76
2023/12/31 01:50:44;;;;;;;1.67;1.40;;;0.20;99.90;;;;;;5001269;28;20574;-76
2023/12/31 01:53:12;;;;;;;1.83;1.40;;;0.10;99.90;;;;;;4998807;28;20950;-77
2023/12/31 01:55:40;;;;;;;1.43;1.00;;;0.10;99.90;;;;;;5009461;28;20486;-76
2023/12/31 01:58:07;;;;;;;1.60;1.33;;;0.00;99.90;;;;;;5005145;28;20500;-76
2023/12/31 02:00:34;;;;;;;2.90;1.80;;;0.10;99.90;;;;;;4997761;28;21048;-75
2023/12/31 02:03:05;;;;;;;1.63;1.40;;;0.10;99.90;;;;;;5003128;28;20522;-77
2023/12/31 02:05:32;;;;;;;1.60;1.50;;;0.00;99.90;;;;;;5019245;28;20470;-78
2023/12/31 02:07:59;;;;;;;2.13;1.90;;;-0.10;99.90;;;;;;5018717;28;20500;-79
2023/12/31 02:10:26;;;;;;;1.80;1.53;;;-0.10;99.90;;;;;;5002550;28;20502;-75
2023/12/31 02:12:53;;;;;;;1.67;1.57;;;-0.20;99.90;;;;;;5011136;28;20503;-74
2023/12/31 02:15:30;;;;;;;3.47;1.87;;;-0.20;99.90;;;;;;5011326;28;20494;-76
2023/12/31 02:17:57;;;;;;;2.13;1.50;;;-0.20;99.90;;;;;;5003887;28;20529;-75
2023/12/31 02:20:26;;;;;;;3.93;2.47;;;-0.10;99.90;;;;;;5003165;28;20514;-75
2023/12/31 02:22:53;;;;;;;1.67;1.50;;;-0.20;99.90;;;;;;5012046;28;20531;-77
2023/12/31 02:25:24;;;;;;;5.60;2.23;;;-0.10;99.90;;;;;;5004755;28;20920;-77
2023/12/31 02:27:53;;;;;;;4.10;2.13;;;-0.20;99.90;;;;;;5011767;28;20496;-75
2023/12/31 02:30:20;;;;;;;3.47;2.10;;;-0.20;99.90;;;;;;5004680;28;20451;-75
2023/12/31 02:32:47;;;;;;;2.37;2.03;;;-0.30;99.90;;;;;;5007224;28;20463;-74
2023/12/31 02:35:14;;;;;;;2.73;2.50;;;-0.30;99.90;;;;;;4997901;28;20499;-75
2023/12/31 02:37:41;;;;;;;4.73;3.00;;;-0.30;99.90;;;;;;5002406;28;20507;-76
2023/12/31 02:40:09;;;;;;;3.00;2.73;;;-0.20;99.90;;;;;;5003106;28;20455;-78
2023/12/31 02:42:36;;;;;;;4.30;1.83;;;-0.20;99.90;;;;;;5003792;28;20455;-75
2023/12/31 02:45:05;;;;;;;2.97;1.40;;;-0.20;99.90;;;;;;5007153;28;20534;-79
2023/12/31 02:47:32;;;;;;;2.47;1.60;;;-0.10;99.90;;;;;;4998587;28;20468;-78
2023/12/31 02:49:59;;;;;;;4.93;2.13;;;0.00;99.90;;;;;;5000717;28;20447;-77
2023/12/31 02:52:26;;;;;;;2.03;1.47;;;0.00;99.90;;;;;;4999242;28;20525;-77
2023/12/31 02:54:53;;;;;;;2.20;1.30;;;0.10;99.90;;;;;;4997260;28;21232;-77
2023/12/31 02:57:20;;;;;;;2.67;1.50;;;0.10;99.90;;;;;;5002309;28;20474;-76
2023/12/31 02:59:48;;;;;;;4.57;2.20;;;0.20;99.90;;;;;;5001378;28;20539;-80
2023/12/31 03:02:16;;;;;;;1.80;1.10;;;0.20;99.90;;;;;;4994878;28;20641;-77
2023/12/31 03:04:43;;;;;;;1.87;1.57;;;0.10;99.90;;;;;;5023859;28;20954;-75
2023/12/31 03:07:10;;;;;;;2.37;1.30;;;0.00;99.90;;;;;;5037249;28;20447;-74
2023/12/31 03:09:37;;;;;;;2.00;1.50;;;0.00;99.90;;;;;;4998026;28;20469;-77
2023/12/31 03:12:04;;;;;;;2.17;1.30;;;0.00;99.90;;;;;;5001793;28;20530;-75
2023/12/31 03:14:31;;;;;;;1.43;1.33;;;-0.10;99.90;;;;;;5002953;28;20602;-76
2023/12/31 03:16:59;;;;;;;1.73;1.10;;;-0.10;99.90;;;;;;5050858;28;20553;-75
2023/12/31 03:19:27;;;;;;;2.63;1.67;;;-0.20;99.90;;;;;;5004511;28;20451;-75
2023/12/31 03:21:54;;;;;;;1.40;1.10;;;-0.20;99.90;;;;;;5036061;28;20920;-75
2023/12/31 03:24:22;;;;;;;1.70;0.80;;;-0.20;99.90;;;;;;4995900;28;20531;-79
2023/12/31 03:26:49;;;;;;;1.93;1.33;;;-0.10;99.90;;;;;;5001989;28;21010;-75
2023/12/31 03:29:17;;;;;;;2.20;1.10;;;-0.20;99.90;;;;;;5026070;28;20434;-75
2023/12/31 03:31:44;;;;;;;1.13;1.03;;;-0.20;99.90;;;;;;5001011;28;20545;-76
2023/12/31 03:34:11;;;;;;;2.47;1.37;;;-0.20;99.90;;;;;;5004021;28;21106;-75
2023/12/31 03:36:39;;;;;;;1.30;1.20;;;-0.30;99.90;;;;;;5004479;28;20540;-74
2023/12/31 03:39:06;;;;;;;1.87;0.90;;;-0.30;99.90;;;;;;5002719;28;21214;-76
2023/12/31 03:41:33;;;;;;;1.57;1.47;;;-0.30;99.90;;;;;;5003713;28;20581;-76
2023/12/31 03:44:00;;;;;;;2.70;2.23;;;-0.30;99.90;;;;;;5001820;28;20958;-75
2023/12/31 03:46:29;;;;;;;1.67;1.57;;;-0.30;99.90;;;;;;5002221;28;20450;-75
2023/12/31 03:48:55;;;;;;;3.03;1.73;;;-0.30;99.90;;;;;;5001623;28;21263;-75
2023/12/31 03:51:22;;;;;;;2.53;1.77;;;-0.40;99.90;;;;;;5003087;28;20946;-77
2023/12/31 03:53:51;;;;;;;4.50;1.80;;;-0.40;99.90;;;;;;5007503;28;20519;-74
2023/12/31 03:56:18;;;;;;;2.07;1.77;;;-0.40;99.90;;;;;;5007011;28;21023;-77
2023/12/31 03:58:45;;;;;;;3.20;1.60;;;-0.40;99.90;;;;;;5004610;28;20843;-74
2023/12/31 04:01:12;;;;;;;2.60;1.53;;;-0.50;99.90;;;;;;5004626;28;20512;-75
2023/12/31 04:03:39;;;;;;;1.40;1.30;;;-0.40;99.90;;;;;;5010073;28;20489;-75
2023/12/31 04:06:07;;;;;;;2.43;1.00;;;-0.20;99.90;;;;;;5007912;28;20467;-76
2023/12/31 04:08:34;;;;;;;2.33;1.40;;;-0.10;99.90;;;;;;5006085;28;20542;-79
2023/12/31 04:11:02;;;;;;;3.90;0.90;;;0.00;99.90;;;;;;5004336;28;21209;-77
2023/12/31 04:13:29;;;;;;;1.80;1.50;;;0.00;99.90;;;;;;5006444;28;20462;-77
2023/12/31 04:15:56;;;;;;;1.20;1.07;;;0.10;99.90;;;;;;5001605;28;21057;-76
2023/12/31 04:18:23;;;;;;;2.07;1.07;;;0.00;99.90;;;;;;5002321;28;20474;-73
2023/12/31 04:20:50;;;;;;;1.73;1.00;;;-0.10;99.90;;;;;;5029497;28;20486;-75
2023/12/31 04:23:17;;;;;;;1.87;0.90;;;-0.20;99.90;;;;;;5003822;28;20491;-74
2023/12/31 04:25:44;;;;;;;0.77;0.67;;;-0.30;99.90;;;;;;5004939;28;20466;-75
2023/12/31 04:28:14;;;;;;;2.43;2.10;;;-0.30;99.90;;;;;;5004897;28;20455;-75
2023/12/31 04:30:41;;;;;;;1.00;0.80;;;-0.30;99.90;;;;;;5004614;28;20518;-76
2023/12/31 04:33:08;;;;;;;3.07;1.00;;;-0.20;99.90;;;;;;5007857;28;20469;-75
2023/12/31 04:35:35;;;;;;;1.83;1.33;;;-0.30;99.90;;;;;;5006009;28;20451;-77
2023/12/31 04:38:02;;;;;;;5.00;1.43;;;-0.30;99.90;;;;;;5003416;28;20546;-76
2023/12/31 04:40:29;;;;;;;2.63;1.67;;;-0.30;99.90;;;;;;5004755;28;20451;-77
2023/12/31 04:42:56;;;;;;;6.03;1.63;;;-0.30;99.90;;;;;;5030053;28;21046;-79
2023/12/31 04:45:24;;;;;;;0.80;0.80;;;-0.40;99.90;;;;;;5001322;28;20463;-75
2023/12/31 04:47:51;;;;;;;1.20;0.90;;;-0.40;99.90;;;;;;5006247;28;20455;-76
2023/12/31 04:50:18;;;;;;;1.57;1.20;;;-0.40;99.90;;;;;;5011626;28;20461;-76
2023/12/31 04:52:45;;;;;;;0.97;0.87;;;-0.40;99.90;;;;;;5003278;28;20466;-77
2023/12/31 04:55:12;;;;;;;1.33;1.13;;;-0.40;99.90;;;;;;5004395;28;20500;-76
2023/12/31 04:57:39;;;;;;;1.23;0.90;;;-0.40;99.90;;;;;;5004322;28;20867;-76
2023/12/31 05:00:07;;;;;;;2.37;1.13;;;-0.50;99.90;;;;;;5004629;28;20979;-76
2023/12/31 05:02:35;;;;;;;1.47;0.83;;;-0.50;99.90;;;;;;5008152;28;20522;-75
2023/12/31 05:05:03;;;;;;;0.97;0.80;;;-0.50;99.90;;;;;;5028198;28;20496;-76
2023/12/31 05:07:30;;;;;;;2.97;1.47;;;-0.60;99.90;;;;;;5001072;28;20469;-75
2023/12/31 05:09:57;;;;;;;0.80;0.80;;;-0.60;99.90;;;;;;4998845;28;20459;-78
2023/12/31 05:12:24;;;;;;;1.50;0.90;;;-0.60;99.90;;;;;;5020057;28;20503;-79
2023/12/31 05:14:51;;;;;;;2.37;0.90;;;-0.70;99.90;;;;;;5009295;28;20495;-75
2023/12/31 05:17:18;;;;;;;2.53;1.67;;;-0.80;99.90;;;;;;4999890;28;20474;-75
2023/12/31 05:19:47;;;;;;;1.20;1.10;;;-0.80;99.90;;;;;;5003066;28;20503;-79
2023/12/31 05:22:14;;;;;;;1.63;0.90;;;-0.80;99.90;;;;;;4998008;28;20851;-77
2023/12/31 05:24:41;;;;;;;1.10;1.00;;;-0.80;99.90;;;;;;5004530;28;20503;-75
2023/12/31 05:27:08;;;;;;;1.30;0.90;;;-0.80;99.90;;;;;;5007222;28;20204;-77
2023/12/31 05:29:35;;;;;;;1.87;1.37;;;-0.80;99.90;;;;;;5006899;28;20489;-76
2023/12/31 05:32:02;;;;;;;4.32;1.20;;;-0.80;99.90;;;;;;5005805;28;20500;-75
2023/12/31 05:34:29;;;;;;;10.50;3.47;;;-0.90;99.90;;;;;;5014021;28;20199;-78
2023/12/31 05:36:57;;;;;;;12.73;4.00;;;-0.90;99.90;;;;;;5004649;28;20206;-76
2023/12/31 05:39:24;;;;;;;8.35;4.68;;;-0.90;99.90;;;;;;5004078;28;20255;-76
2023/12/31 05:41:51;;;;;;;13.65;5.53;;;-1.00;99.90;;;;;;5000585;28;20262;-80
2023/12/31 05:44:18;;;;;;;8.53;5.87;;;-1.00;99.90;;;;;;5003501;28;20645;-74
2023/12/31 05:46:45;;;;;;;4.93;4.40;;;-1.00;99.90;;;;;;5006254;28;20519;-76
2023/12/31 05:49:11;;;;;;;8.18;4.80;;;-1.20;99.90;;;;;;4994357;28;20206;-76
2023/12/31 05:51:38;;;;;;;16.88;5.40;;;-1.30;99.90;;;;;;5021678;28;20603;-75
2023/12/31 05:54:07;;;;;;;8.52;5.82;;;-1.30;99.90;;;;;;5016767;28;20211;-82
2023/12/31 05:56:34;;;;;;;17.63;7.30;;;-1.30;99.90;;;;;;5006938;28;20199;-77
2023/12/31 05:59:01;;;;;;;7.72;5.50;;;-1.40;99.90;;;;;;5005156;28;20250;-77
2023/12/31 06:01:28;;;;;;;5.27;4.83;;;-1.40;99.90;;;;;;5007050;28;20295;-77
2023/12/31 06:03:56;;;;;;;4.70;4.20;;;-1.50;99.90;;;;;;5010109;28;20496;-77
2023/12/31 06:06:23;;;;;;;5.27;3.73;;;-1.40;99.90;;;;;;5007230;28;20519;-80
2023/12/31 06:08:50;;;;;;;6.20;5.60;;;-1.30;99.90;;;;;;5001157;28;20467;-78
2023/12/31 06:11:18;;;;;;;6.13;5.50;;;-1.30;99.90;;;;;;5003250;28;20484;-80
2023/12/31 06:13:45;;;;;;;10.98;5.95;;;-1.30;99.90;;;;;;5002636;28;20214;-76
2023/12/31 06:16:12;;;;;;;8.25;6.85;;;-1.30;99.90;;;;;;4997325;28;20231;-77
2023/12/31 06:18:39;;;;;;;14.68;8.65;;;-1.40;99.90;;;;;;5003106;28;20670;-76
2023/12/31 06:21:06;;;;;;;7.03;5.55;;;-1.40;99.90;;;;;;5003724;28;20235;-80
2023/12/31 06:23:33;;;;;;;7.50;6.70;;;-1.50;99.90;;;;;;5006066;28;20207;-80
2023/12/31 06:26:00;;;;;;;8.15;5.15;;;-1.50;99.90;;;;;;5006599;28;20287;-76
2023/12/31 06:28:28;;;;;;;15.00;7.07;;;-1.40;99.90;;;;;;5000187;28;20695;-78
2023/12/31 06:30:55;;;;;;;16.02;6.60;;;-1.40;99.90;;;;;;5003520;28;20231;-78
2023/12/31 06:33:24;;;;;;;14.95;8.75;;;-1.40;99.90;;;;;;5005197;28;20928;-77
2023/12/31 06:35:51;;;;;;;35.28;11.40;;;-1.30;99.90;;;;;;4998519;28;20214;-78
2023/12/31 06:38:17;;;;;;;37.10;9.23;;;-1.20;99.90;;;;;;5002385;28;20203;-80
2023/12/31 06:40:44;;;;;;;33.33;9.15;;;-1.30;99.90;;;;;;4999971;28;20753;-77
2023/12/31 06:43:11;;;;;;;8.90;7.03;;;-1.40;99.90;;;;;;5015370;28;20261;-79
2023/12/31 06:45:40;;;;;;;48.60;9.88;;;-1.40;99.90;;;;;;5046530;28;20260;-76
2023/12/31 06:48:07;;;;;;;15.25;7.70;;;-1.40;99.90;;;;;;5006176;28;20207;-76
2023/12/31 06:50:35;;;;;;;4.63;4.22;;;-1.60;99.90;;;;;;5012420;28;20238;-75
2023/12/31 06:53:02;;;;;;;5.20;4.70;;;-1.70;99.90;;;;;;5030359;28;20217;-77
2023/12/31 06:55:29;;;;;;;4.10;3.80;;;-1.70;99.90;;;;;;5018701;28;20203;-76
2023/12/31 06:57:56;;;;;;;5.00;4.60;;;-1.70;99.90;;;;;;5027518;28;20535;-76
2023/12/31 07:00:23;;;;;;;6.13;5.37;;;-1.80;99.90;;;;;;4999691;28;20583;-76
2023/12/31 07:02:51;;;;;;;10.27;7.10;;;-1.80;99.90;;;;;;5009251;28;21004;-79
2023/12/31 07:05:18;;;;;;;8.80;7.10;;;-1.80;99.90;;;;;;5009367;28;20557;-78
2023/12/31 07:07:46;;;;;;;9.57;5.40;;;-1.90;99.90;;;;;;5020228;28;20469;-76
2023/12/31 07:10:12;;;;;;;5.73;5.17;;;-1.80;99.90;;;;;;5016773;28;20462;-76
2023/12/31 07:12:40;;;;;;;6.67;5.27;;;-1.90;99.90;;;;;;5015372;28;20477;-76
2023/12/31 07:15:09;;;;;;;6.50;5.80;;;-1.90;99.90;;;;;;5023719;28;20931;-76
2023/12/31 07:17:36;;;;;;;4.67;4.37;;;-1.80;99.90;;;;;;5007710;28;20492;-77
2023/12/31 07:20:06;;;;;;;5.40;4.90;;;-1.80;99.90;;;;;;5004015;28;20553;-76
2023/12/31 07:22:33;;;;;;;5.68;5.22;;;-1.90;99.90;;;;;;5009875;28;20874;-74
2023/12/31 07:25:00;;;;;;;4.53;4.22;;;-1.90;99.90;;;;;;5009396;28;20203;-75
2023/12/31 07:27:27;;;;;;;4.25;3.83;;;-1.70;99.90;;;;;;5025511;28;20237;-78
2023/12/31 07:29:54;;;;;;;4.37;3.70;;;-1.80;99.90;;;;;;5027588;28;20211;-76
2023/12/31 07:32:22;;;;;;;4.80;4.40;;;-1.70;99.90;;;;;;5023960;28;20523;-76
2023/12/31 07:34:49;;;;;;;4.63;3.53;;;-1.60;99.90;;;;;;5001479;28;20508;-81
2023/12/31 07:37:18;;;;;;;4.00;3.60;;;-1.50;99.90;;;;;;5003126;28;20454;-75
2023/12/31 07:39:45;;;;;;;3.17;2.87;;;-1.50;99.90;;;;;;4999119;28;20656;-78
2023/12/31 07:42:12;;;;;;;4.10;3.43;;;-1.30;99.90;;;;;;5005676;28;20577;-78
2023/12/31 07:44:39;;;;;;;2.60;2.47;;;-1.00;99.90;;;;;;5003813;28;20492;-77
2023/12/31 07:47:06;;;;;;;6.55;4.00;;;-0.80;99.90;;;;;;5004700;28;20499;-75
2023/12/31 07:49:33;;;;;;;4.65;4.15;;;-0.70;99.90;;;;;;5005423;28;20212;-76
2023/12/31 07:52:00;;;;;;;4.60;4.20;;;-0.70;99.90;;;;;;5017329;28;20297;-76
2023/12/31 07:54:29;;;;;;;9.37;6.10;;;-0.70;99.90;;;;;;5002442;28;21022;-75
2023/12/31 07:56:56;;;;;;;10.20;5.70;;;-0.60;99.90;;;;;;5002477;28;20491;-76
2023/12/31 07:59:23;;;;;;;13.73;6.97;;;-0.70;99.90;;;;;;5043524;28;20462;-78
2023/12/31 08:01:51;;;;;;;21.70;8.30;;;-0.60;99.90;;;;;;5021546;28;20508;-77
2023/12/31 08:04:20;;;;;;;60.90;15.77;;;-0.70;99.90;;;;;;5013829;28;20637;-79
2023/12/31 08:06:48;;;;;;;38.60;11.32;;;-0.60;99.90;;;;;;5010959;28;20470;-76
2023/12/31 08:09:16;;;;;;;35.33;10.20;;;-0.50;99.90;;;;;;5011465;28;20208;-75
2023/12/31 08:11:44;;;;;;;10.30;5.60;;;-0.60;99.90;;;;;;5010322;28;20462;-77
2023/12/31 08:14:11;;;;;;;5.70;4.90;;;-0.70;99.90;;;;;;5024186;28;20462;-75
2023/12/31 08:16:38;;;;;;;3.60;3.30;;;-0.70;99.90;;;;;;5054667;28;20566;-76
2023/12/31 08:19:05;;;;;;;4.47;4.03;;;-0.60;99.90;;;;;;5012545;28;20467;-79
2023/12/31 08:21:32;;;;;;;3.60;3.27;;;-0.60;99.90;;;;;;5035466;28;20472;-76
2023/12/31 08:23:59;;;;;;;3.60;3.30;;;-0.50;99.90;;;;;;5019643;28;20518;-77
2023/12/31 08:26:26;;;;;;;5.40;4.40;;;-0.40;99.90;;;;;;5019099;28;20515;-74
2023/12/31 08:28:54;;;;;;;4.30;3.93;;;-0.20;99.90;;;;;;5035608;28;20570;-75
2023/12/31 08:31:21;;;;;;;4.03;3.63;;;-0.10;99.90;;;;;;5004743;28;20559;-76
2023/12/31 08:33:48;;;;;;;4.90;3.63;;;-0.10;99.90;;;;;;5013206;28;20446;-75
2023/12/31 08:36:15;;;;;;;6.50;4.40;;;0.00;99.90;;;;;;5003687;28;20474;-76
2023/12/31 08:38:42;;;;;;;10.17;7.40;;;0.10;99.90;;;;;;5008376;28;20554;-75
2023/12/31 08:41:09;;;;;;;8.67;6.20;;;0.20;99.90;;;;;;5012391;28;20465;-76
2023/12/31 08:43:36;;;;;;;10.97;8.13;;;0.30;99.90;;;;;;5010212;28;20524;-77
2023/12/31 08:46:05;;;;;;;9.80;7.40;;;0.40;99.90;;;;;;5036306;28;20458;-76
2023/12/31 08:48:32;;;;;;;10.27;7.83;;;0.50;99.90;;;;;;5023671;28;20887;-82
2023/12/31 08:50:58;;;;;;;8.77;6.50;;;0.50;99.90;;;;;;5042681;28;20442;-77
2023/12/31 08:53:33;;;;;;;7.73;6.00;;;0.70;99.90;;;;;;5001252;28;20519;-79
2023/12/31 08:56:00;;;;;;;8.57;6.10;;;0.90;99.90;;;;;;5018888;28;20903;-79
2023/12/31 08:58:27;;;;;;;7.50;6.60;;;1.00;99.90;;;;;;5019826;28;20962;-77
2023/12/31 09:00:54;;;;;;;6.30;5.50;;;1.20;99.90;;;;;;5010500;28;20519;-78
2023/12/31 09:03:22;;;;;;;6.53;5.93;;;1.20;99.90;;;;;;4997784;28;20493;-80
2023/12/31 09:05:49;;;;;;;5.90;5.30;;;1.20;99.90;;;;;;5021139;28;20467;-76
2023/12/31 09:08:16;;;;;;;7.23;4.87;;;1.10;99.90;;;;;;5003531;28;20489;-77
2023/12/31 09:10:43;;;;;;;4.73;4.33;;;1.10;99.90;;;;;;5008631;28;20454;-77
2023/12/31 09:13:10;;;;;;;6.53;4.20;;;1.20;99.90;;;;;;5014664;28;20463;-78
2023/12/31 09:15:37;;;;;;;3.97;3.67;;;1.30;99.90;;;;;;5003295;28;20475;-77
2023/12/31 09:18:04;;;;;;;2.77;2.60;;;1.50;99.90;;;;;;5009650;28;20502;-75
2023/12/31 09:20:33;;;;;;;4.20;3.77;;;1.70;99.90;;;;;;5004887;28;20470;-75
2023/12/31 09:23:02;;;;;;;4.03;3.70;;;1.50;99.90;;;;;;5007594;28;20509;-79
2023/12/31 09:25:29;;;;;;;4.43;4.03;;;1.50;99.90;;;;;;5000580;28;20466;-77
2023/12/31 09:27:56;;;;;;;4.30;3.23;;;1.30;99.90;;;;;;5007536;28;20447;-77
2023/12/31 09:30:23;;;;;;;4.97;4.57;;;1.30;99.90;;;;;;5005424;28;20508;-78
2023/12/31 09:32:50;;;;;;;5.20;4.70;;;1.50;99.90;;;;;;5004944;28;20862;-77
2023/12/31 09:35:17;;;;;;;4.80;4.40;;;1.40;99.90;;;;;;5004634;28;20546;-77
2023/12/31 09:37:45;;;;;;;3.70;3.30;;;1.60;99.90;;;;;;5002441;28;20446;-77
2023/12/31 09:40:13;;;;;;;3.57;3.27;;;1.70;99.90;;;;;;5004450;28;20446;-78
2023/12/31 09:42:47;;;;;;;3.80;3.50;;;1.80;99.90;;;;;;5004598;28;20522;-80
2023/12/31 09:45:15;;;;;;;21.07;8.70;;;1.90;99.90;;;;;;4998221;28;20450;-75
2023/12/31 09:47:43;;;;;;;11.40;8.10;;;1.90;99.90;;;;;;5001977;28;20530;-81
2023/12/31 09:50:11;;;;;;;10.00;7.43;;;2.20;99.90;;;;;;5002651;28;20475;-76
2023/12/31 09:52:39;;;;;;;8.03;5.97;;;2.40;99.90;;;;;;5008389;28;20506;-77
2023/12/31 09:55:08;;;;;;;5.73;5.20;;;2.30;99.90;;;;;;5004293;28;20470;-78
2023/12/31 09:57:36;;;;;;;7.90;6.73;;;2.40;99.90;;;;;;5002994;28;20537;-76
2023/12/31 10:00:05;;;;;;;8.97;5.60;;;2.40;99.90;;;;;;4996712;28;20470;-75
2023/12/31 10:02:33;;;;;;;54.60;29.20;;;2.40;99.90;;;;;;5008886;28;20518;-75
2023/12/31 10:05:01;;;;;;;16.40;11.33;;;2.30;99.90;;;;;;5015104;28;20463;-74
2023/12/31 10:07:28;;;;;;;12.07;10.77;;;2.50;99.90;;;;;;4998631;28;20467;-75
2023/12/31 10:09:57;;;;;;;9.00;8.23;;;2.70;99.90;;;;;;4997560;28;20466;-80
2023/12/31 10:12:27;;;;;;;6.80;5.33;;;2.40;99.90;;;;;;5007532;28;20501;-77
2023/12/31 10:14:54;;;;;;;8.93;6.83;;;2.30;99.90;;;;;;4989791;28;20472;-76
2023/12/31 10:17:22;;;;;;;11.33;10.23;;;2.30;99.90;;;;;;4997111;28;20614;-80
2023/12/31 10:19:48;;;;;;;10.33;8.03;;;2.30;99.90;;;;;;5001308;28;20462;-80
2023/12/31 10:22:15;;;;;;;10.60;8.90;;;2.20;99.90;;;;;;5003346;28;20455;-81
2023/12/31 10:24:42;;;;;;;7.73;5.80;;;2.30;99.90;;;;;;5010195;28;20539;-79
2023/12/31 10:27:09;;;;;;;18.13;10.60;;;2.30;99.90;;;;;;5004184;28;20514;-80
2023/12/31 10:29:39;;;;;;;25.83;18.00;;;2.40;99.90;;;;;;5002818;28;20894;-77
2023/12/31 10:32:06;;;;;;;28.70;21.00;;;2.50;99.90;;;;;;5002018;28;20848;-79
2023/12/31 10:34:34;;;;;;;17.07;11.87;;;2.60;99.90;;;;;;5014555;28;20527;-76
2023/12/31 10:37:05;;;;;;;12.80;9.20;;;2.60;99.90;;;;;;5003399;28;20459;-76
2023/12/31 10:39:34;;;;;;;12.67;8.50;;;2.60;99.90;;;;;;5003562;28;20443;-78
2023/12/31 10:42:03;;;;;;;9.47;7.40;;;2.70;99.90;;;;;;5001490;28;20458;-76
2023/12/31 10:44:32;;;;;;;11.30;8.73;;;2.80;99.90;;;;;;5001004;28;21009;-77
2023/12/31 10:47:04;;;;;;;10.40;8.93;;;2.80;99.90;;;;;;5002975;28;20550;-80
2023/12/31 10:49:33;;;;;;;16.33;8.47;;;2.80;99.90;;;;;;5003492;28;20482;-76
2023/12/31 10:52:04;;;;;;;10.60;8.30;;;2.70;99.90;;;;;;5003140;28;20526;-79
2023/12/31 10:54:40;;;;;;;12.80;11.50;;;2.60;99.90;;;;;;4994058;28;20470;-77
2023/12/31 10:57:09;;;;;;;12.13;6.80;;;2.80;99.90;;;;;;4997315;28;20478;-77
2023/12/31 10:59:37;;;;;;;14.90;7.87;;;2.70;99.90;;;;;;4999214;28;20475;-76
2023/12/31 11:02:05;;;;;;;13.90;8.00;;;2.80;99.90;;;;;;4995364;28;20534;-75
2023/12/31 11:04:33;;;;;;;16.80;9.23;;;2.60;99.90;;;;;;5031923;28;21087;-76
2023/12/31 11:07:03;;;;;;;10.33;7.80;;;2.70;99.90;;;;;;5000110;28;20941;-76
2023/12/31 11:09:30;;;;;;;14.17;10.50;;;2.80;99.90;;;;;;5016180;28;20458;-76
2023/12/31 11:11:58;;;;;;;15.67;10.27;;;2.80;99.90;;;;;;4994069;28;21277;-76
2023/12/31 11:14:29;;;;;;;15.23;10.03;;;2.60;99.90;;;;;;5069899;28;20496;-76
2023/12/31 11:17:09;;;;;;;16.97;9.83;;;2.50;99.90;;;;;;5025032;28;20482;-76
2023/12/31 11:20:08;;;;;;;25.37;10.70;;;2.60;99.90;;;;;;5019894;28;20530;-76
2023/12/31 11:22:47;;;;;;;13.90;10.37;;;2.60;99.90;;;;;;5050011;28;20476;-79
2023/12/31 11:25:20;;;;;;;16.97;9.63;;;2.60;99.90;;;;;;5034689;28;21670;-77
2023/12/31 11:27:49;;;;;;;24.77;13.30;;;2.70;99.90;;;;;;4999282;28;20583;-76
2023/12/31 11:30:16;;;;;;;26.93;20.67;;;2.60;99.90;;;;;;5067467;28;20495;-80
2023/12/31 11:32:44;;;;;;;84.43;61.00;;;2.70;99.90;;;;;;5017147;28;20481;-75
2023/12/31 11:35:12;;;;;;;80.53;45.83;;;2.90;99.90;;;;;;5005996;28;20830;-76
2023/12/31 11:37:41;;;;;;;76.17;44.30;;;2.80;99.90;;;;;;5030210;28;20462;-76
2023/12/31 11:40:11;;;;;;;67.00;35.73;;;2.80;99.90;;;;;;5043575;28;20462;-78
2023/12/31 11:42:38;;;;;;;40.13;24.87;;;2.80;99.90;;;;;;4991703;28;20996;-77
2023/12/31 11:45:06;;;;;;;27.80;19.40;;;2.70;99.90;;;;;;5066258;28;20561;-79
2023/12/31 11:47:33;;;;;;;23.17;15.10;;;2.80;99.90;;;;;;5018414;28;20499;-77
2023/12/31 11:50:24;;;;;;;22.57;13.07;;;2.90;99.90;;;;;;5060841;28;20501;-76
2023/12/31 11:52:53;;;;;;;30.00;22.50;;;3.00;99.90;;;;;;5012213;28;20472;-77
2023/12/31 11:55:20;;;;;;;23.10;13.87;;;3.00;99.90;;;;;;5004331;28;21007;-76
2023/12/31 11:57:48;;;;;;;19.10;11.43;;;3.00;99.90;;;;;;5038163;28;20523;-75
2023/12/31 12:00:15;;;;;;;19.30;13.60;;;3.10;99.90;;;;;;5092497;28;20990;-75
2023/12/31 12:02:43;;;;;;;19.40;9.77;;;3.00;99.90;;;;;;5024885;28;20462;-77
2023/12/31 12:05:10;;;;;;;16.63;9.20;;;2.90;99.90;;;;;;5058022;28;20486;-76
2023/12/31 12:07:39;;;;;;;22.23;14.53;;;2.90;99.90;;;;;;5054150;28;20728;-77
2023/12/31 12:10:07;;;;;;;31.77;16.33;;;3.00;99.90;;;;;;5032973;28;20547;-76
2023/12/31 12:12:34;;;;;;;18.57;11.50;;;3.10;99.90;;;;;;5015845;28;20515;-76
2023/12/31 12:15:04;;;;;;;18.73;10.33;;;3.10;99.90;;;;;;5026175;28;20938;-75
2023/12/31 12:17:31;;;;;;;23.00;14.10;;;3.10;99.90;;;;;;5004565;28;20570;-76
2023/12/31 12:19:58;;;;;;;21.27;13.17;;;3.20;99.90;;;;;;5022599;28;20446;-75
2023/12/31 12:22:26;;;;;;;23.23;13.27;;;3.20;99.90;;;;;;5027548;28;20442;-75
2023/12/31 12:24:56;;;;;;;19.63;11.13;;;3.20;99.90;;;;;;5026811;28;20567;-78
2023/12/31 12:27:23;;;;;;;14.43;8.87;;;3.50;99.90;;;;;;5025347;28;20899;-76
2023/12/31 12:29:51;;;;;;;15.10;8.00;;;3.30;99.90;;;;;;5015319;28;21138;-76
2023/12/31 12:32:21;;;;;;;18.93;11.17;;;3.30;99.90;;;;;;5009273;28;20975;-76
2023/12/31 12:34:50;;;;;;;14.07;8.93;;;3.30;99.90;;;;;;5005785;28;20905;-76
2023/12/31 12:37:17;;;;;;;23.00;14.63;;;3.30;99.90;;;;;;5038627;28;21090;-78
2023/12/31 12:39:44;;;;;;;22.90;14.80;;;3.30;99.90;;;;;;5054344;28;20439;-76
2023/12/31 12:42:12;;;;;;;15.27;9.50;;;3.40;99.90;;;;;;5051732;28;21043;-77
2023/12/31 12:44:39;;;;;;;15.00;11.17;;;3.40;99.90;;;;;;5008937;28;20487;-76
2023/12/31 12:47:06;;;;;;;13.13;9.00;;;3.40;99.90;;;;;;5013840;28;20454;-78
2023/12/31 12:49:33;;;;;;;17.97;11.80;;;3.50;99.90;;;;;;5027034;28;20515;-75